PWSweather.com
Personal Weather Stations
Station Observations
728536
Kristiansand, FlekkeroyNO 4625

KristiansandFlekkeroyNO 4625

Lat: 58.0860587, Lon: 8.0151742

Elevation: 36

Station Type: Davis Vantage Pro2

http://www.paulen.no

Latest ConditionsUpdated 7:40:01 AM GMT+01:01 Wednesday, Apr 25, 2018
Currently Today's Max Today's Min Today's Average
Temperature 45.4°F7.4°C 45.4°F7.4°C 41.6°F5.3°C 42.6°F5.9°C
Dew Point 42.3°F5.7°C 42.3°F5.7°C 40.0°F4.4°C 40.9°F4.9°C
Winds 3.5 mph WSW5.6 kmh WSW 5.8 mph SW9.3 kmh SW - 3.2 mph 5.1 kmh
Wind Gusts 3.5 mph5.6 kmh 11.5 mph18.5 kmh - -
Humidity 89% 95% 89% 94%
Pressure 29.52 in999.7 mb 29.57 in1001.4 mb 29.51 in999.3 mb -
Hour Temp Dew Point Humidity Winds Wind Gusts Pressure Precip Precip Rate Daily Precip Total
07:40 AM 45.4°F7.4°C 42.3°F5.7°C 89% 3.5 mph WSW5.6 kmh WSW 3.5 mph5.6 kmh 29.52 in999.7 mb - 0.00 in0.0 mm 0.00 in0.0 mm
07:30 AM 44.7°F7.1°C 41.7°F5.4°C 89% 3.5 mph SW5.6 kmh SW 6.9 mph11.1 kmh 29.52 in999.7 mb - 0.00 in0.0 mm 0.00 in0.0 mm
07:20 AM 44.9°F7.2°C 41.9°F5.5°C 89% 5.8 mph SW9.3 kmh SW 9.2 mph14.8 kmh 29.52 in999.7 mb - 0.00 in0.0 mm 0.00 in0.0 mm
07:10 AM 44.7°F7.1°C 41.9°F5.5°C 90% 4.6 mph SW7.4 kmh SW 6.9 mph11.1 kmh 29.52 in999.7 mb - 0.00 in0.0 mm 0.00 in0.0 mm
07:00 AM 44.6°F7.0°C 42.1°F5.6°C 91% 5.8 mph SW9.3 kmh SW 8.1 mph13.0 kmh 29.52 in999.7 mb - 0.00 in0.0 mm 0.00 in0.0 mm
06:50 AM 44.1°F6.7°C 41.9°F5.5°C 92% 3.5 mph W5.6 kmh W 3.5 mph5.6 kmh 29.52 in999.7 mb - 0.00 in0.0 mm 0.00 in0.0 mm
06:40 AM 43.6°F6.4°C 41.7°F5.4°C 93% 2.3 mph SW3.7 kmh SW 4.6 mph7.4 kmh 29.52 in999.7 mb - 0.00 in0.0 mm 0.00 in0.0 mm
06:30 AM 43.1°F6.2°C 41.2°F5.1°C 93% 3.5 mph SW5.6 kmh SW 5.8 mph9.3 kmh 29.52 in999.7 mb - 0.00 in0.0 mm 0.00 in0.0 mm
06:20 AM 42.8°F6.0°C 41.2°F5.1°C 94% 4.6 mph SW7.4 kmh SW 8.1 mph13.0 kmh 29.52 in999.7 mb - 0.00 in0.0 mm 0.00 in0.0 mm
06:10 AM 42.8°F6.0°C 41.2°F5.1°C 94% 3.5 mph SW5.6 kmh SW 5.8 mph9.3 kmh 29.52 in999.7 mb - 0.00 in0.0 mm 0.00 in0.0 mm
06:00 AM 42.8°F6.0°C 41.2°F5.1°C 94% 2.3 mph SW3.7 kmh SW 3.5 mph5.6 kmh 29.52 in999.7 mb - 0.00 in0.0 mm 0.00 in0.0 mm
05:50 AM 42.6°F5.9°C 41.3°F5.2°C 95% 2.3 mph SW3.7 kmh SW 3.5 mph5.6 kmh 29.52 in999.7 mb - 0.00 in0.0 mm 0.00 in0.0 mm
05:40 AM 42.0°F5.6°C 40.7°F4.8°C 95% 3.5 mph W5.6 kmh W 4.6 mph7.4 kmh 29.52 in999.7 mb - 0.00 in0.0 mm 0.00 in0.0 mm
05:30 AM 41.8°F5.4°C 40.2°F4.6°C 94% 2.3 mph WSW3.7 kmh WSW 5.8 mph9.3 kmh 29.51 in999.3 mb - 0.00 in0.0 mm 0.00 in0.0 mm
05:20 AM 41.8°F5.4°C 40.2°F4.6°C 94% 4.6 mph WSW7.4 kmh WSW 5.8 mph9.3 kmh 29.51 in999.3 mb - 0.00 in0.0 mm 0.00 in0.0 mm
05:10 AM 41.8°F5.4°C 40.2°F4.6°C 94% 3.5 mph SW5.6 kmh SW 5.8 mph9.3 kmh 29.51 in999.3 mb - 0.00 in0.0 mm 0.00 in0.0 mm
05:00 AM 41.6°F5.3°C 40.0°F4.4°C 94% 2.3 mph WSW3.7 kmh WSW 4.6 mph7.4 kmh 29.52 in999.7 mb - 0.00 in0.0 mm 0.00 in0.0 mm
04:50 AM 41.6°F5.3°C 40.0°F4.4°C 94% 1.2 mph WSW1.9 kmh WSW 2.3 mph3.7 kmh 29.52 in999.7 mb - 0.00 in0.0 mm 0.00 in0.0 mm
04:40 AM 41.8°F5.4°C 40.2°F4.6°C 94% 3.5 mph WSW5.6 kmh WSW 4.6 mph7.4 kmh 29.52 in999.7 mb - 0.00 in0.0 mm 0.00 in0.0 mm
04:30 AM 41.9°F5.5°C 40.3°F4.6°C 94% 3.5 mph WSW5.6 kmh WSW 4.6 mph7.4 kmh 29.52 in999.7 mb - 0.00 in0.0 mm 0.00 in0.0 mm
04:20 AM 42.1°F5.6°C 40.5°F4.7°C 94% 4.6 mph WNW7.4 kmh WNW 11.5 mph18.5 kmh 29.52 in999.7 mb - 0.00 in0.0 mm 0.00 in0.0 mm
04:10 AM 42.3°F5.7°C 40.7°F4.8°C 94% 2.3 mph W3.7 kmh W 5.8 mph9.3 kmh 29.52 in999.7 mb - 0.00 in0.0 mm 0.00 in0.0 mm
04:00 AM 42.2°F5.7°C 40.6°F4.8°C 94% 3.5 mph WSW5.6 kmh WSW 5.8 mph9.3 kmh 29.52 in999.7 mb - 0.00 in0.0 mm 0.00 in0.0 mm
03:50 AM 42.2°F5.7°C 40.6°F4.8°C 94% 2.3 mph W3.7 kmh W 10.4 mph16.7 kmh 29.52 in999.7 mb - 0.00 in0.0 mm 0.00 in0.0 mm
03:40 AM 42.2°F5.7°C 40.6°F4.8°C 94% 2.3 mph WNW3.7 kmh WNW 4.6 mph7.4 kmh 29.52 in999.7 mb - 0.00 in0.0 mm 0.00 in0.0 mm
03:30 AM 42.2°F5.7°C 40.6°F4.8°C 94% 2.3 mph SW3.7 kmh SW 3.5 mph5.6 kmh 29.52 in999.7 mb - 0.00 in0.0 mm 0.00 in0.0 mm
03:20 AM 42.2°F5.7°C 40.6°F4.8°C 94% 2.3 mph WSW3.7 kmh WSW 4.6 mph7.4 kmh 29.52 in999.7 mb - 0.00 in0.0 mm 0.00 in0.0 mm
03:10 AM 42.2°F5.7°C 40.6°F4.8°C 94% 2.3 mph WSW3.7 kmh WSW 5.8 mph9.3 kmh 29.52 in999.7 mb - 0.00 in0.0 mm 0.00 in0.0 mm
03:00 AM 42.2°F5.7°C 40.6°F4.8°C 94% 2.3 mph WSW3.7 kmh WSW 5.8 mph9.3 kmh 29.53 in1000.0 mb - 0.00 in0.0 mm 0.00 in0.0 mm
02:50 AM 42.2°F5.7°C 40.6°F4.8°C 94% 2.3 mph WSW3.7 kmh WSW 5.8 mph9.3 kmh 29.53 in1000.0 mb - 0.00 in0.0 mm 0.00 in0.0 mm
02:40 AM 42.2°F5.7°C 40.6°F4.8°C 94% 3.5 mph WSW5.6 kmh WSW 5.8 mph9.3 kmh 29.54 in1000.3 mb - 0.00 in0.0 mm 0.00 in0.0 mm
02:30 AM 42.2°F5.7°C 40.6°F4.8°C 94% 3.5 mph WSW5.6 kmh WSW 5.8 mph9.3 kmh 29.54 in1000.3 mb - 0.00 in0.0 mm 0.00 in0.0 mm
02:20 AM 42.3°F5.7°C 40.7°F4.8°C 94% 4.6 mph WSW7.4 kmh WSW 5.8 mph9.3 kmh 29.54 in1000.3 mb - 0.00 in0.0 mm 0.00 in0.0 mm
02:10 AM 42.3°F5.7°C 40.7°F4.8°C 94% 2.3 mph WSW3.7 kmh WSW 4.6 mph7.4 kmh 29.54 in1000.3 mb - 0.00 in0.0 mm 0.00 in0.0 mm
02:00 AM 42.4°F5.8°C 40.8°F4.9°C 94% 3.5 mph WSW5.6 kmh WSW 6.9 mph11.1 kmh 29.55 in1000.7 mb - 0.00 in0.0 mm 0.00 in0.0 mm
01:50 AM 42.3°F5.7°C 41.0°F5.0°C 95% 3.5 mph WSW5.6 kmh WSW 4.6 mph7.4 kmh 29.55 in1000.7 mb - 0.00 in0.0 mm 0.00 in0.0 mm
01:40 AM 42.3°F5.7°C 41.0°F5.0°C 95% 3.5 mph WSW5.6 kmh WSW 5.8 mph9.3 kmh 29.55 in1000.7 mb - 0.00 in0.0 mm 0.00 in0.0 mm
01:30 AM 42.3°F5.7°C 41.0°F5.0°C 95% 2.3 mph WSW3.7 kmh WSW 4.6 mph7.4 kmh 29.56 in1001.0 mb - 0.00 in0.0 mm 0.00 in0.0 mm
01:20 AM 42.3°F5.7°C 41.0°F5.0°C 95% 2.3 mph W3.7 kmh W 3.5 mph5.6 kmh 29.56 in1001.0 mb - 0.00 in0.0 mm 0.00 in0.0 mm
01:10 AM 42.4°F5.8°C 41.1°F5.1°C 95% 2.3 mph WNW3.7 kmh WNW 5.8 mph9.3 kmh 29.56 in1001.0 mb - 0.00 in0.0 mm 0.00 in0.0 mm
01:00 AM 42.4°F5.8°C 41.1°F5.1°C 95% 4.6 mph W7.4 kmh W 6.9 mph11.1 kmh 29.57 in1001.4 mb - 0.00 in0.0 mm 0.00 in0.0 mm
12:50 AM 42.5°F5.8°C 41.2°F5.1°C 95% 2.3 mph W3.7 kmh W 4.6 mph7.4 kmh 29.57 in1001.4 mb - 0.00 in0.0 mm 0.00 in0.0 mm
12:40 AM 42.4°F5.8°C 41.1°F5.1°C 95% 3.5 mph NW5.6 kmh NW 4.6 mph7.4 kmh 29.57 in1001.4 mb - 0.00 in0.0 mm 0.00 in0.0 mm
12:30 AM 42.4°F5.8°C 40.8°F4.9°C 94% 2.3 mph W3.7 kmh W 6.9 mph11.1 kmh 29.57 in1001.4 mb - 0.00 in0.0 mm 0.00 in0.0 mm
12:20 AM 42.5°F5.8°C 41.2°F5.1°C 95% 2.3 mph WSW3.7 kmh WSW 3.5 mph5.6 kmh 29.57 in1001.4 mb - 0.00 in0.0 mm 0.00 in0.0 mm
12:10 AM 42.5°F5.8°C 40.9°F4.9°C 94% 4.6 mph SW7.4 kmh SW 11.5 mph18.5 kmh 29.57 in1001.4 mb - 0.00 in0.0 mm 0.00 in0.0 mm
12:00 AM 42.6°F5.9°C 41.0°F5.0°C 94% 4.6 mph SW7.4 kmh SW 8.1 mph13.0 kmh 29.57 in1001.4 mb - 0.00 in0.0 mm 0.00 in0.0 mm